Terminal Aerodrome Forecast
Issued by NWS

Home | Current Version | Previous Version | Text Only | Print | Product List | Glossary On
Versions: 1 2 3 4 5 6 7 8 9 10 11 12 13 14 15 16 17 18 19 20 21 22 23 24 25 26
000
FTUS41 KRNK 011224 AAA
TAFLWB
TAF AMD
KLWB 011224Z 0112/0212 02008KT 4SM -SNPL SCT015 OVC050
      TEMPO 0112/0114 2SM -SN OVC015
     FM011400 04005KT 5SM -SNPL SCT012 OVC025
     FM011600 03003KT 2SM -FZRAPL BR SCT004 OVC012
     FM012000 00000KT 1SM BR OVC004
     FM020300 26004KT 5SM BR OVC007
     FM020900 28007KT 4SM -SN SCT005 OVC012=

USA.gov is the U.S. government's official web portal to all federal, state and local government web resources and services.